Brampton, Michigan
Current Conditions -  °F | °C
As of 5:15 PM on Sunday 23 Nov 2014 (Local Time) from KESC Reporting Station
Overcast Overcast  
Wind Chill: 39°   Ceiling: 300
Heat Index: 43°   Visibility: 1.7mi
Dew Point: 39°   Wind: 7mph
Humidity: 87%   Direction: 190°S
Pressure: 29.47"   Gusts: NA
Location:  45.8921°N, 87.0533°W
Report Text: KESC 232215Z AUTO 19006KT 1 3/4SM OVC003 06/04 A2947 RMK AO1
Loading
Personal Weather Stations






























Interactive Weather Map New forecast layout! Learn more

10-Day Weather Forecast

Advertisements
Track Severe Weather on mobile